Time;durP1;ratioP1;P1;durP2;ratioP2;P2;SDS_P1;SDS_P2;PMS_P1;PMS_P2;Temp;Humidity;BMP_temperature;BMP_pressure;BME280_temperature;BME280_humidity;BME280_pressure;Samples;Min_cycle;Max_cycle;Signal;HPM_P1;HPM_P2
2023/12/26 00:01:17;;;;;;;2.57;2.00;;;;;;;9.64;100.00;100009.97;6170230;28;20262;-67
2023/12/26 00:04:39;;;;;;;2.80;2.60;;;;;;;9.60;100.00;100007.72;6170937;28;20234;-68
2023/12/26 00:08:02;;;;;;;4.80;3.67;;;;;;;9.59;100.00;99998.81;6168999;28;20235;-68
2023/12/26 00:11:23;;;;;;;2.40;2.30;;;;;;;9.54;100.00;99998.41;6171035;28;20230;-68
2023/12/26 00:14:45;;;;;;;3.20;2.20;;;;;;;9.54;100.00;99993.03;6172815;28;20676;-69
2023/12/26 00:18:07;;;;;;;2.43;2.23;;;;;;;9.48;100.00;99977.50;6162230;28;20230;-69
2023/12/26 00:21:29;;;;;;;2.77;2.17;;;;;;;9.50;100.00;99978.19;6166055;28;20238;-69
2023/12/26 00:24:50;;;;;;;2.87;1.67;;;;;;;9.45;100.00;99977.78;6171890;28;20357;-69
2023/12/26 00:28:13;;;;;;;1.87;1.77;;;;;;;9.47;100.00;99981.16;6163798;28;20223;-68
2023/12/26 00:31:35;;;;;;;2.33;1.53;;;;;;;9.44;100.00;99976.13;6170165;28;20223;-68
2023/12/26 00:34:58;;;;;;;1.93;1.10;;;;;;;9.42;100.00;99967.34;6170181;28;20267;-68
2023/12/26 00:38:21;;;;;;;1.57;1.30;;;;;;;9.37;100.00;99975.00;6170490;28;20234;-69
2023/12/26 00:41:42;;;;;;;1.40;1.20;;;;;;;9.35;100.00;99971.63;6171318;28;20231;-70
2023/12/26 00:45:03;;;;;;;0.80;0.80;;;;;;;9.33;100.00;99979.00;6168391;28;20242;-69
2023/12/26 00:48:24;;;;;;;1.50;1.40;;;;;;;9.30;100.00;99973.94;6167718;28;20748;-69
2023/12/26 00:51:48;;;;;;;2.70;1.00;;;;;;;9.29;100.00;99976.75;6174056;28;20239;-70
2023/12/26 00:55:09;;;;;;;4.37;2.23;;;;;;;9.24;100.00;99966.44;6173623;28;20258;-69
2023/12/26 00:58:31;;;;;;;0.90;0.90;;;;;;;9.22;100.00;99963.06;6167481;28;20230;-69
2023/12/26 01:01:53;;;;;;;4.10;1.33;;;;;;;9.18;100.00;99925.88;6173240;28;20234;-68
2023/12/26 01:05:15;;;;;;;1.87;0.80;;;;;;;9.16;100.00;99931.41;6158986;28;20563;-68
2023/12/26 01:08:38;;;;;;;6.57;1.93;;;;;;;9.20;100.00;99929.28;6170403;28;20329;-68
2023/12/26 01:11:59;;;;;;;1.77;0.73;;;;;;;9.16;100.00;99935.91;6166352;28;20230;-68
2023/12/26 01:15:20;;;;;;;0.83;0.70;;;;;;;9.21;100.00;99947.94;6168172;28;20245;-69
2023/12/26 01:18:41;;;;;;;1.63;0.83;;;;;;;9.19;100.00;99955.31;6169214;28;20226;-68
2023/12/26 01:22:03;;;;;;;1.20;0.73;;;;;;;9.24;100.00;99965.63;6168522;28;20256;-68
2023/12/26 01:25:26;;;;;;;0.50;0.50;;;;;;;9.25;100.00;99957.41;6160610;28;20226;-69
2023/12/26 01:28:47;;;;;;;0.60;0.60;;;;;;;9.28;100.00;99962.44;6170070;28;20238;-69
2023/12/26 01:32:08;;;;;;;1.37;1.27;;;;;;;9.33;100.00;99952.09;6164168;28;20601;-70
2023/12/26 01:35:29;;;;;;;1.30;1.20;;;;;;;9.29;100.00;99942.66;6172031;28;20499;-68
2023/12/26 01:38:51;;;;;;;1.00;1.00;;;;;;;9.28;100.00;99919.44;6168031;28;20493;-68
2023/12/26 01:42:14;;;;;;;1.90;1.00;;;;;;;9.31;100.00;99921.81;6167828;28;20604;-69
2023/12/26 01:45:36;;;;;;;1.50;0.90;;;;;;;9.31;100.00;99920.97;6182023;28;20266;-68
2023/12/26 01:48:58;;;;;;;1.83;0.80;;;;;;;9.36;100.00;99921.38;6160363;28;20317;-67
2023/12/26 01:52:21;;;;;;;3.23;1.43;;;;;;;9.38;100.00;99916.69;6168621;28;20233;-68
2023/12/26 01:55:42;;;;;;;1.20;1.10;;;;;;;9.40;100.00;99912.84;6168339;28;20226;-68
2023/12/26 01:59:04;;;;;;;1.60;1.50;;;;;;;9.38;100.00;99914.00;6163651;28;20234;-68
2023/12/26 02:02:26;;;;;;;2.10;1.57;;;;;;;9.43;100.00;99911.69;6160881;28;20467;-69
2023/12/26 02:05:48;;;;;;;1.50;1.40;;;;;;;9.44;100.00;99900.78;6155864;28;20230;-67
2023/12/26 02:09:11;;;;;;;2.63;2.20;;;;;;;9.42;100.00;99913.56;6165706;28;20250;-68
2023/12/26 02:12:33;;;;;;;1.70;1.60;;;;;;;9.43;100.00;99895.53;6131270;28;20221;-69
2023/12/26 02:15:59;;;;;;;1.67;1.57;;;;;;;9.44;100.00;99889.19;6167430;28;20230;-69
2023/12/26 02:19:21;;;;;;;2.13;1.70;;;;;;;9.47;100.00;99886.19;6166499;28;20588;-69
2023/12/26 02:22:45;;;;;;;1.20;1.13;;;;;;;9.48;100.00;99886.03;6160408;28;20230;-69
2023/12/26 02:26:09;;;;;;;1.00;1.00;;;;;;;9.51;100.00;99888.41;6170552;28;20238;-69
2023/12/26 02:29:31;;;;;;;1.87;1.07;;;;;;;9.52;100.00;99882.03;6165019;28;20234;-69
2023/12/26 02:32:55;;;;;;;1.40;1.30;;;;;;;9.53;100.00;99885.56;6165109;28;20573;-69
2023/12/26 02:36:17;;;;;;;1.67;0.80;;;;;;;9.53;100.00;99890.97;6179454;28;20230;-68
2023/12/26 02:39:39;;;;;;;1.60;1.10;;;;;;;9.57;100.00;99886.97;6168333;28;20227;-69
2023/12/26 02:43:02;;;;;;;2.27;1.43;;;;;;;9.59;100.00;99885.81;6165045;28;20317;-69
2023/12/26 02:46:23;;;;;;;1.00;0.63;;;;;;;9.57;100.00;99889.66;6166510;28;20686;-69
2023/12/26 02:49:44;;;;;;;0.93;0.83;;;;;;;9.54;100.00;99879.19;6178468;28;20250;-69
2023/12/26 02:53:05;;;;;;;0.80;0.80;;;;;;;9.56;100.00;99880.72;6163636;28;20226;-68
2023/12/26 02:56:26;;;;;;;0.73;0.73;;;;;;;9.54;100.00;99876.50;6166406;28;20244;-69
2023/12/26 02:59:49;;;;;;;2.00;0.73;;;;;;;9.58;100.00;99888.63;6166794;28;20235;-68
2023/12/26 03:03:10;;;;;;;0.70;0.70;;;;;;;9.55;100.00;99892.47;6166288;28;20720;-68
2023/12/26 03:06:31;;;;;;;0.50;0.50;;;;;;;9.55;100.00;99897.03;6158547;28;20329;-69
2023/12/26 03:09:53;;;;;;;2.53;1.00;;;;;;;9.56;100.00;99901.41;6164471;28;20250;-68
2023/12/26 03:13:14;;;;;;;0.33;0.33;;;;;;;9.58;100.00;99888.63;6168018;28;20502;-68
2023/12/26 03:16:36;;;;;;;0.60;0.60;;;;;;;9.55;100.00;99892.47;6163153;28;20230;-69
2023/12/26 03:19:58;;;;;;;0.97;0.73;;;;;;;9.55;100.00;99895.16;6166200;28;20277;-68
2023/12/26 03:23:19;;;;;;;0.60;0.60;;;;;;;9.57;100.00;99886.97;6164415;28;20566;-68
2023/12/26 03:26:40;;;;;;;0.70;0.70;;;;;;;9.57;100.00;99898.53;6164908;28;20329;-68
2023/12/26 03:30:02;;;;;;;0.67;0.50;;;;;;;9.50;100.00;99878.66;6165990;28;20519;-68
2023/12/26 03:33:24;;;;;;;0.80;0.63;;;;;;;9.50;100.00;99885.88;6167713;28;20234;-68
2023/12/26 03:36:48;;;;;;;0.80;0.47;;;;;;;9.46;100.00;99904.16;6169757;28;20230;-68
2023/12/26 03:40:11;;;;;;;1.10;0.80;;;;;;;9.48;100.00;99906.69;6159612;28;20516;-68
2023/12/26 03:43:32;;;;;;;0.80;0.80;;;;;;;9.50;100.00;99910.94;6162875;28;20613;-68
2023/12/26 03:46:54;;;;;;;0.80;0.60;;;;;;;9.50;100.00;99897.47;6164316;28;20297;-67
2023/12/26 03:50:16;;;;;;;0.40;0.40;;;;;;;9.50;100.00;99896.63;6170162;28;22456;-68
2023/12/26 03:53:37;;;;;;;1.80;0.70;;;;;;;9.49;100.00;99908.41;6169279;28;20230;-67
2023/12/26 03:56:58;;;;;;;0.80;0.77;;;;;;;9.48;100.00;99917.47;6168776;28;20242;-67
2023/12/26 04:00:19;;;;;;;0.97;0.87;;;;;;;9.45;100.00;99920.47;6167970;28;20234;-67
2023/12/26 04:03:41;;;;;;;0.93;0.70;;;;;;;9.47;100.00;99924.69;6170860;28;20309;-68
2023/12/26 04:07:04;;;;;;;0.47;0.40;;;;;;;9.49;100.00;99951.44;6162661;28;20247;-68
2023/12/26 04:10:25;;;;;;;0.43;0.43;;;;;;;9.51;100.00;99944.06;6170342;28;20242;-69
2023/12/26 04:13:46;;;;;;;0.60;0.60;;;;;;;9.50;100.00;99945.91;6166787;28;20261;-68
2023/12/26 04:17:07;;;;;;;0.50;0.50;;;;;;;9.51;100.00;99946.75;6166259;28;20230;-68
2023/12/26 04:20:29;;;;;;;0.60;0.50;;;;;;;9.54;100.00;99952.69;6166567;28;20322;-68
2023/12/26 04:23:51;;;;;;;0.40;0.40;;;;;;;9.54;100.00;99958.06;6162548;28;20242;-67
2023/12/26 04:27:13;;;;;;;2.13;1.03;;;;;;;9.52;100.00;99951.13;6171424;28;20238;-68
2023/12/26 04:30:34;;;;;;;1.30;0.73;;;;;;;9.52;100.00;99953.81;6148786;28;20276;-67
2023/12/26 04:33:55;;;;;;;0.67;0.67;;;;;;;9.49;100.00;99948.75;6166637;28;20230;-68
2023/12/26 04:37:16;;;;;;;0.93;0.73;;;;;;;9.57;100.00;99957.75;6168293;28;20227;-68
2023/12/26 04:40:39;;;;;;;2.73;0.80;;;;;;;9.58;100.00;99970.22;6165868;28;20226;-68
2023/12/26 04:44:00;;;;;;;2.47;1.13;;;;;;;9.62;100.00;99978.81;6167431;28;20329;-67
2023/12/26 04:47:22;;;;;;;2.00;1.20;;;;;;;9.59;100.00;99977.28;6168685;28;20234;-68
2023/12/26 04:50:43;;;;;;;9.03;1.30;;;;;;;9.64;100.00;99976.81;6165227;28;20592;-68
2023/12/26 04:54:05;;;;;;;1.83;0.80;;;;;;;9.55;100.00;99981.25;6169805;28;20256;-68
2023/12/26 04:57:27;;;;;;;2.43;0.90;;;;;;;9.59;100.00;100001.50;6167859;28;20234;-68
2023/12/26 05:00:48;;;;;;;4.50;1.40;;;;;;;9.55;100.00;100023.47;6169032;28;20229;-68
2023/12/26 05:04:10;;;;;;;4.23;1.30;;;;;;;9.55;100.00;100013.53;6166745;28;20238;-68
2023/12/26 05:07:32;;;;;;;9.67;2.40;;;;;;;9.45;100.00;100004.69;6161040;28;20690;-67
2023/12/26 05:10:53;;;;;;;4.97;2.67;;;;;;;9.44;100.00;100021.84;6165639;28;20238;-67
2023/12/26 05:14:15;;;;;;;9.37;2.40;;;;;;;9.41;100.00;100014.06;6165593;28;20621;-68
2023/12/26 05:17:36;;;;;;;3.20;2.17;;;;;;;9.35;100.00;100025.41;6169080;28;20231;-67
2023/12/26 05:20:57;;;;;;;8.97;3.23;;;;;;;9.37;100.00;100034.19;6159252;28;20230;-67
2023/12/26 05:24:18;;;;;;;5.43;2.23;;;;;;;9.26;100.00;100023.63;6165632;28;20592;-67
2023/12/26 05:27:40;;;;;;;9.77;2.47;;;;;;;9.25;100.00;100027.31;6165230;28;20227;-68
2023/12/26 05:31:04;;;;;;;3.63;1.50;;;;;;;9.24;100.00;100049.81;6165496;28;20262;-67
2023/12/26 05:34:25;;;;;;;5.27;2.00;;;;;;;9.26;100.00;100052.38;6166093;28;20238;-67
2023/12/26 05:37:46;;;;;;;7.10;2.37;;;;;;;9.26;100.00;100049.69;6163015;28;20234;-68
2023/12/26 05:41:07;;;;;;;4.87;2.73;;;;;;;9.25;100.00;100059.59;6164807;28;20234;-69
2023/12/26 05:44:29;;;;;;;4.80;1.83;;;;;;;9.23;100.00;100063.41;6160029;28;20324;-68
2023/12/26 05:47:51;;;;;;;2.80;2.07;;;;;;;9.24;100.00;100078.56;6176935;28;20231;-68
2023/12/26 05:51:13;;;;;;;5.17;2.37;;;;;;;9.25;100.00;100081.09;6160769;28;20254;-68
2023/12/26 05:54:35;;;;;;;7.03;3.50;;;;;;;9.25;100.00;100091.84;6154898;28;20238;-68
2023/12/26 05:57:56;;;;;;;4.57;1.97;;;;;;;9.23;100.00;100088.47;6164814;28;20234;-68
2023/12/26 06:01:18;;;;;;;7.80;2.27;;;;;;;9.19;100.00;100095.13;6163547;28;20553;-68
2023/12/26 06:04:40;;;;;;;4.47;1.97;;;;;;;9.21;100.00;100095.84;6163087;28;20219;-68
2023/12/26 06:08:02;;;;;;;4.93;2.60;;;;;;;9.16;100.00;100103.47;6161357;28;20222;-68
2023/12/26 06:11:24;;;;;;;4.40;2.17;;;;;;;9.13;100.00;100103.78;6164054;28;20225;-67
2023/12/26 06:14:45;;;;;;;7.10;2.87;;;;;;;9.14;100.00;100108.16;6152131;28;20234;-68
2023/12/26 06:18:06;;;;;;;3.57;1.53;;;;;;;9.12;100.00;100120.03;6165158;28;20262;-67
2023/12/26 06:21:29;;;;;;;5.67;2.27;;;;;;;9.17;100.00;100115.09;6163894;28;20500;-67
2023/12/26 06:24:51;;;;;;;8.57;2.87;;;;;;;9.12;100.00;100128.97;6154706;28;20226;-67
2023/12/26 06:28:12;;;;;;;6.37;2.83;;;;;;;9.13;100.00;100130.69;6161969;28;20235;-68
2023/12/26 06:31:33;;;;;;;4.47;2.50;;;;;;;9.17;100.00;100134.78;6155064;28;20238;-68
2023/12/26 06:34:54;;;;;;;6.97;2.60;;;;;;;9.03;100.00;100137.91;6171360;28;20230;-68
2023/12/26 06:38:16;;;;;;;7.57;2.70;;;;;;;9.10;100.00;100152.47;6150128;28;20234;-67
2023/12/26 06:41:39;;;;;;;10.77;2.77;;;;;;;9.11;100.00;100148.78;6162567;28;20230;-68
2023/12/26 06:45:00;;;;;;;11.17;2.07;;;;;;;9.16;100.00;100154.56;6168856;28;20250;-68
2023/12/26 06:48:21;;;;;;;8.57;3.83;;;;;;;9.11;100.00;100166.75;6159280;28;20333;-67
2023/12/26 06:51:43;;;;;;;5.53;2.60;;;;;;;9.13;100.00;100168.31;6167559;28;20493;-68
2023/12/26 06:55:08;;;;;;;10.53;4.10;;;;;;;9.14;100.00;100170.00;6181543;28;20238;-67
2023/12/26 06:58:28;;;;;;;5.00;2.90;;;;;;;9.10;100.00;100178.50;6172902;28;20600;-67
2023/12/26 07:01:50;;;;;;;4.67;2.33;;;;;;;9.06;100.00;100172.56;6174686;28;20237;-68
2023/12/26 07:05:11;;;;;;;12.07;3.03;;;;;;;9.09;100.00;100187.56;6160408;28;20222;-67
2023/12/26 07:08:32;;;;;;;4.87;1.90;;;;;;;9.06;100.00;100203.97;6165874;28;20260;-67
2023/12/26 07:11:54;;;;;;;4.60;2.57;;;;;;;9.04;100.00;100197.88;6164007;28;20230;-67
2023/12/26 07:15:15;;;;;;;7.13;2.93;;;;;;;9.05;100.00;100213.91;6166089;28;20388;-68
2023/12/26 07:18:36;;;;;;;6.60;2.80;;;;;;;8.97;100.00;100218.28;6166110;28;20325;-68
2023/12/26 07:21:57;;;;;;;5.20;2.57;;;;;;;8.93;100.00;100223.06;6178280;28;20225;-68
2023/12/26 07:25:18;;;;;;;6.20;2.53;;;;;;;8.90;100.00;100228.75;6169205;28;20234;-67
2023/12/26 07:28:41;;;;;;;5.70;3.37;;;;;;;8.92;100.00;100232.16;6171660;28;20316;-68
2023/12/26 07:32:02;;;;;;;5.03;2.47;;;;;;;8.98;100.00;100254.91;6171903;28;20748;-67
2023/12/26 07:35:23;;;;;;;6.33;2.67;;;;;;;8.94;100.00;100261.56;6165140;28;20234;-68
2023/12/26 07:38:44;;;;;;;4.70;3.10;;;;;;;8.97;100.00;100262.13;6173992;28;20598;-68
2023/12/26 07:42:06;;;;;;;7.77;2.70;;;;;;;8.93;100.00;100252.66;6169142;28;20231;-68
2023/12/26 07:45:29;;;;;;;4.47;2.07;;;;;;;8.93;100.00;100260.72;6163924;28;20523;-68
2023/12/26 07:48:51;;;;;;;6.90;2.40;;;;;;;8.93;100.00;100289.44;6167171;28;20612;-67
2023/12/26 07:52:12;;;;;;;3.03;2.23;;;;;;;8.86;100.00;100289.97;6172859;28;20630;-67
2023/12/26 07:55:34;;;;;;;7.27;2.37;;;;;;;8.86;100.00;100284.59;6175683;28;20246;-68
2023/12/26 07:58:55;;;;;;;7.53;2.73;;;;;;;8.83;100.00;100292.97;6163289;28;20246;-67
2023/12/26 08:02:18;;;;;;;4.67;2.13;;;;;;;8.81;100.00;100316.44;6172530;28;20234;-68
2023/12/26 08:05:38;;;;;;;8.37;3.30;;;;;;;8.84;100.00;100326.91;6180718;28;20572;-68
2023/12/26 08:09:01;;;;;;;6.57;3.77;;;;;;;8.76;100.00;100315.16;6168006;28;20250;-68
2023/12/26 08:12:22;;;;;;;7.43;3.30;;;;;;;8.79;100.00;100331.00;6167239;28;20242;-67
2023/12/26 08:15:43;;;;;;;14.03;4.27;;;;;;;8.75;100.00;100330.44;6162000;28;20230;-67
2023/12/26 08:19:06;;;;;;;10.80;3.80;;;;;;;8.79;100.00;100347.13;6166892;28;20238;-67
2023/12/26 08:22:27;;;;;;;4.93;2.47;;;;;;;8.78;100.00;100343.59;6177138;28;20230;-68
2023/12/26 08:25:49;;;;;;;14.57;3.30;;;;;;;8.78;100.00;100345.44;6167239;28;20258;-68
2023/12/26 08:29:10;;;;;;;7.97;2.80;;;;;;;8.79;100.00;100347.13;6169535;28;20230;-67
2023/12/26 08:32:31;;;;;;;5.07;2.03;;;;;;;8.77;100.00;100374.16;6176444;28;20253;-67
2023/12/26 08:35:53;;;;;;;7.70;4.03;;;;;;;8.79;100.00;100372.16;6180970;28;20245;-67
2023/12/26 08:39:14;;;;;;;13.10;3.43;;;;;;;8.80;100.00;100386.47;6179007;28;20234;-67
2023/12/26 08:42:35;;;;;;;11.80;2.83;;;;;;;8.76;100.00;100387.72;6168153;28;20226;-67
2023/12/26 08:45:56;;;;;;;7.43;2.70;;;;;;;8.72;100.00;100389.81;6163395;28;20226;-67
2023/12/26 08:49:17;;;;;;;10.37;3.10;;;;;;;8.78;100.00;100381.22;6167433;28;20367;-67
2023/12/26 08:52:40;;;;;;;9.77;3.00;;;;;;;8.73;100.00;100401.44;6157781;28;20527;-67
2023/12/26 08:56:03;;;;;;;9.63;2.73;;;;;;;8.70;100.00;100399.84;6165138;28;20234;-66
2023/12/26 08:59:25;;;;;;;8.30;2.80;;;;;;;8.70;100.00;100399.00;6163697;28;20238;-68
2023/12/26 09:02:46;;;;;;;10.23;3.30;;;;;;;8.73;100.00;100413.03;6164581;28;20227;-68
2023/12/26 09:06:10;;;;;;;6.47;2.17;;;;;;;8.71;100.00;100408.78;6177008;28;20258;-67
2023/12/26 09:09:32;;;;;;;5.97;3.07;;;;;;;8.74;100.00;100419.25;6169241;28;20238;-68
2023/12/26 09:12:54;;;;;;;4.63;2.30;;;;;;;8.70;100.00;100423.19;6162005;28;20295;-67
2023/12/26 09:16:15;;;;;;;7.13;2.80;;;;;;;8.66;100.00;100430.66;6172029;28;20235;-67
2023/12/26 09:19:36;;;;;;;4.90;2.03;;;;;;;8.62;100.00;100437.31;6167661;28;20317;-68
2023/12/26 09:22:57;;;;;;;10.83;3.83;;;;;;;8.73;100.00;100445.28;6168461;28;20225;-67
2023/12/26 09:26:22;;;;;;;8.57;3.73;;;;;;;8.73;100.00;100457.84;6175889;28;20227;-66
2023/12/26 09:29:42;;;;;;;8.67;3.47;;;;;;;8.79;100.00;100466.22;6161150;28;20238;-68
2023/12/26 09:33:04;;;;;;;8.57;2.87;;;;;;;8.94;100.00;100457.78;6160144;28;20616;-68
2023/12/26 09:36:26;;;;;;;11.13;3.00;;;;;;;8.97;100.00;100469.13;6162365;28;20328;-68
2023/12/26 09:39:47;;;;;;;9.67;3.17;;;;;;;10.90;100.00;100445.56;6172436;28;20256;-67
2023/12/26 09:43:09;;;;;;;16.90;3.53;;;;;;;10.01;100.00;100448.72;6176849;28;20230;-68
2023/12/26 09:46:31;;;;;;;8.77;3.93;;;;;;;9.18;100.00;100479.81;6168023;28;20234;-68
2023/12/26 09:49:54;;;;;;;8.73;3.03;;;;;;;9.05;100.00;100496.19;6166448;28;20337;-67
2023/12/26 09:53:21;;;;;;;10.37;3.23;;;;;;;8.90;100.00;100494.00;6173365;28;20227;-67
2023/12/26 09:56:44;;;;;;;8.43;3.03;;;;;;;8.86;100.00;100486.19;6160175;28;20231;-67
2023/12/26 10:00:09;;;;;;;5.43;2.33;;;;;;;9.13;100.00;100504.44;6164105;28;20284;-68
2023/12/26 10:03:33;;;;;;;5.70;1.97;;;;;;;8.81;100.00;100491.13;6162821;28;20257;-67
2023/12/26 10:06:54;;;;;;;4.93;2.50;;;;;;;8.90;100.00;100515.50;6163631;28;20328;-67
2023/12/26 10:10:20;;;;;;;5.43;2.57;;;;;;;9.05;100.00;100520.41;6169206;28;20242;-67
2023/12/26 10:13:45;;;;;;;6.20;2.37;;;;;;;9.04;100.00;100499.00;6164183;28;20237;-68
2023/12/26 10:17:09;;;;;;;4.47;1.80;;;;;;;9.04;100.00;100499.00;6164403;28;20230;-68
2023/12/26 10:20:34;;;;;;;3.30;1.83;;;;;;;9.01;100.00;100512.72;6161933;28;20230;-67
2023/12/26 10:23:57;;;;;;;6.73;2.57;;;;;;;9.22;100.00;100526.97;6167595;28;20226;-67
2023/12/26 10:27:18;;;;;;;7.13;2.97;;;;;;;9.00;100.00;100525.31;6172677;28;20319;-67
2023/12/26 10:30:39;;;;;;;8.13;2.67;;;;;;;8.89;100.00;100517.34;6171600;28;20242;-68
2023/12/26 10:34:15;;;;;;;8.20;2.07;;;;;;;8.93;100.00;100512.56;6162971;28;20227;-67
2023/12/26 10:37:37;;;;;;;9.10;2.10;;;;;;;8.75;100.00;100512.31;6163153;28;20582;-68
2023/12/26 10:41:01;;;;;;;6.50;2.43;;;;;;;8.51;100.00;100526.03;6163950;28;20509;-68
2023/12/26 10:48:12;;;;;;;3.43;2.87;;;;;;;8.46;100.00;100540.84;6167024;28;20226;-68
2023/12/26 10:51:38;;;;;;;4.37;2.40;;;;;;;8.40;100.00;100565.53;6163895;28;20513;-69
2023/12/26 10:55:01;;;;;;;5.90;2.40;;;;;;;8.36;100.00;100564.09;6166214;28;20237;-68
2023/12/26 10:58:28;;;;;;;4.10;3.07;;;;;;;8.36;100.00;100556.91;6164009;28;20226;-67
2023/12/26 13:51:54;;;;;;;3.90;1.80;;;;;;;7.64;100.00;100805.25;6164002;28;20230;-68
2023/12/26 13:55:52;;;;;;;3.53;1.97;;;;;;;7.61;100.00;100802.84;6166101;28;20234;-68
2023/12/26 13:59:14;;;;;;;2.10;0.67;;;;;;;7.65;100.00;100812.34;6161667;28;20278;-69
2023/12/26 14:02:35;;;;;;;1.00;0.90;;;;;;;7.67;100.00;100856.00;6169714;28;20234;-68
2023/12/26 14:06:35;;;;;;;1.20;0.70;;;;;;;7.60;100.00;100840.50;6165812;28;20613;-68
2023/12/26 14:10:32;;;;;;;0.67;0.67;;;;;;;7.71;100.00;100840.53;6163608;28;20258;-68
2023/12/26 14:13:53;;;;;;;1.60;0.90;;;;;;;7.69;100.00;100839.78;6165472;28;20237;-68
2023/12/26 14:17:15;;;;;;;1.27;1.10;;;;;;;7.66;100.00;100859.66;6173881;28;20464;-68
2023/12/26 14:21:13;;;;;;;1.03;1.00;;;;;;;7.68;100.00;100871.13;6164234;28;20738;-68
2023/12/26 14:25:11;;;;;;;1.27;0.60;;;;;;;7.69;100.00;100874.66;6169750;28;20234;-68
2023/12/26 14:28:31;;;;;;;2.93;1.40;;;;;;;7.67;100.00;100872.09;6168457;28;20246;-68
2023/12/26 14:31:52;;;;;;;2.23;0.63;;;;;;;7.64;100.00;100883.06;6170199;28;20825;-68
2023/12/26 14:35:50;;;;;;;1.37;1.10;;;;;;;7.63;100.00;100888.56;6164160;28;20246;-68
2023/12/26 14:39:48;;;;;;;2.53;1.20;;;;;;;7.59;100.00;100895.13;6172214;28;20308;-68
2023/12/26 14:43:10;;;;;;;1.23;0.80;;;;;;;7.53;100.00;100906.31;6168367;28;20343;-69
2023/12/26 14:46:31;;;;;;;1.80;0.80;;;;;;;7.47;100.00;100917.53;6169434;28;20565;-68
2023/12/26 14:50:30;;;;;;;1.50;0.83;;;;;;;7.59;100.00;100924.63;6165533;28;20239;-68
2023/12/26 14:54:28;;;;;;;2.70;0.87;;;;;;;7.55;100.00;100921.31;6155636;28;20641;-69
2023/12/26 14:57:48;;;;;;;2.50;0.97;;;;;;;7.54;100.00;100924.97;6166957;28;20241;-68
2023/12/26 15:01:11;;;;;;;2.47;1.50;;;;;;;7.45;100.00;100933.69;6160464;28;20250;-68
2023/12/26 15:04:33;;;;;;;1.90;1.67;;;;;;;7.52;100.00;100944.84;6161518;28;20230;-68
2023/12/26 15:07:54;;;;;;;3.07;1.40;;;;;;;7.53;100.00;100951.94;6152487;28;20226;-68
2023/12/26 15:11:15;;;;;;;1.20;0.90;;;;;;;7.55;100.00;100955.34;6157633;28;20313;-68
2023/12/26 15:14:36;;;;;;;3.83;1.40;;;;;;;7.47;100.00;100965.78;6152192;28;20229;-69
2023/12/26 15:17:59;;;;;;;4.37;2.03;;;;;;;7.47;100.00;100974.69;6153372;28;20231;-68
2023/12/26 15:21:19;;;;;;;3.00;1.10;;;;;;;7.39;100.00;100976.22;6157525;28;20703;-68
2023/12/26 15:24:41;;;;;;;3.20;1.20;;;;;;;7.37;100.00;100992.41;6152356;28;20234;-68
2023/12/26 15:28:02;;;;;;;4.00;1.70;;;;;;;7.35;100.00;100998.84;6157993;28;20233;-68
2023/12/26 15:31:23;;;;;;;4.47;1.90;;;;;;;7.37;100.00;101013.00;6160762;28;20301;-68
2023/12/26 15:34:47;;;;;;;3.53;1.53;;;;;;;7.52;100.00;101011.88;6162106;28;20250;-69
2023/12/26 15:38:08;;;;;;;2.00;1.53;;;;;;;7.47;100.00;101016.75;6154254;28;20280;-68
2023/12/26 15:41:29;;;;;;;1.87;1.77;;;;;;;7.45;100.00;101026.75;6157942;28;20265;-68
2023/12/26 15:44:50;;;;;;;1.50;1.20;;;;;;;7.46;100.00;101031.97;6155246;28;20313;-68
2023/12/26 15:48:11;;;;;;;1.30;1.10;;;;;;;7.26;100.00;101035.25;6156096;28;20676;-68
2023/12/26 15:51:33;;;;;;;1.97;1.20;;;;;;;7.09;100.00;101038.31;6153704;28;20238;-69
2023/12/26 15:54:54;;;;;;;4.83;1.63;;;;;;;7.08;100.00;101053.53;6156268;28;20278;-68
2023/12/26 15:58:15;;;;;;;2.40;0.80;;;;;;;7.06;100.00;101068.88;6153216;28;20258;-67
2023/12/26 16:01:37;;;;;;;2.83;1.13;;;;;;;7.16;100.00;101061.00;6154437;28;20238;-69
2023/12/26 16:04:58;;;;;;;1.43;1.10;;;;;;;7.30;100.00;101052.00;6154941;28;20234;-68
2023/12/26 16:08:21;;;;;;;3.13;1.60;;;;;;;7.36;100.00;101047.03;6150365;28;20231;-67
2023/12/26 16:11:43;;;;;;;2.13;1.23;;;;;;;7.36;100.00;101056.91;6161659;28;20512;-68
2023/12/26 16:15:05;;;;;;;2.13;1.33;;;;;;;7.24;100.00;101058.63;6160899;28;20235;-68
2023/12/26 16:18:26;;;;;;;3.13;1.90;;;;;;;7.08;100.00;101079.47;6158927;28;20247;-68
2023/12/26 16:21:47;;;;;;;3.20;1.70;;;;;;;7.05;100.00;101093.09;6165552;28;20233;-68
2023/12/26 16:25:10;;;;;;;4.60;2.47;;;;;;;7.20;100.00;101100.03;6151600;28;20234;-68
2023/12/26 16:28:32;;;;;;;5.17;2.23;;;;;;;7.27;100.00;101098.63;6162309;28;20656;-67
2023/12/26 16:31:53;;;;;;;1.90;1.40;;;;;;;7.22;100.00;101098.09;6163384;28;20227;-68
2023/12/26 16:35:14;;;;;;;2.80;1.50;;;;;;;7.28;100.00;101113.75;6161067;28;20234;-68
2023/12/26 16:38:35;;;;;;;4.40;1.83;;;;;;;7.24;100.00;101115.78;6151879;28;20234;-67
2023/12/26 16:42:07;;;;;;;3.87;1.00;;;;;;;7.18;100.00;101132.31;6161369;28;20231;-68
2023/12/26 16:45:28;;;;;;;2.30;1.10;;;;;;;7.15;100.00;101151.28;6165128;28;20249;-67
2023/12/26 16:48:49;;;;;;;3.50;1.40;;;;;;;7.07;100.00;101150.13;6162504;28;20334;-68
2023/12/26 16:52:10;;;;;;;7.43;1.73;;;;;;;6.97;100.00;101149.03;6166354;28;20230;-68
2023/12/26 16:55:32;;;;;;;2.83;2.13;;;;;;;6.95;100.00;101164.38;6169917;28;20231;-68
2023/12/26 16:58:54;;;;;;;2.47;1.03;;;;;;;7.04;100.00;101164.59;6161559;28;20263;-69
2023/12/26 17:02:15;;;;;;;2.27;1.00;;;;;;;7.07;100.00;101166.22;6160031;28;20234;-68
2023/12/26 17:05:36;;;;;;;1.20;0.87;;;;;;;7.07;100.00;101184.97;6160876;28;20242;-68
2023/12/26 17:08:58;;;;;;;2.77;1.40;;;;;;;7.20;100.00;101209.94;6160167;28;20238;-68
2023/12/26 17:12:21;;;;;;;0.97;0.90;;;;;;;7.17;100.00;101213.72;6160685;28;20231;-67
2023/12/26 17:15:44;;;;;;;3.33;1.60;;;;;;;7.15;100.00;101225.50;6160385;28;20238;-68
2023/12/26 17:19:06;;;;;;;1.70;1.60;;;;;;;7.02;100.00;101230.88;6161891;28;20235;-68
2023/12/26 17:22:26;;;;;;;2.00;1.00;;;;;;;6.96;100.00;101231.28;6166533;28;20636;-68
2023/12/26 17:25:47;;;;;;;2.10;1.40;;;;;;;6.97;100.00;101235.66;6162147;28;20250;-68
2023/12/26 17:29:09;;;;;;;2.73;2.53;;;;;;;6.98;100.00;101266.00;6162235;28;20563;-68
2023/12/26 17:32:31;;;;;;;2.43;1.67;;;;;;;6.91;100.00;101289.69;6167682;28;20241;-68
2023/12/26 17:35:53;;;;;;;1.07;0.90;;;;;;;6.56;100.00;101282.25;6164291;28;20619;-68
2023/12/26 17:39:14;;;;;;;2.97;1.97;;;;;;;6.56;100.00;101283.13;6165819;28;20226;-68
2023/12/26 17:42:35;;;;;;;3.70;1.73;;;;;;;6.60;100.00;101289.13;6166684;28;20234;-68
2023/12/26 17:45:56;;;;;;;7.13;3.37;;;;;;;6.51;100.00;101298.63;6164150;28;20262;-67
2023/12/26 17:49:19;;;;;;;8.03;2.20;;;;;;;6.41;100.00;101297.50;6155267;28;20793;-69
2023/12/26 17:52:40;;;;;;;0.90;0.90;;;;;;;6.23;100.00;101312.09;6157215;28;20348;-68
2023/12/26 17:56:01;;;;;;;2.73;1.67;;;;;;;6.25;100.00;101323.56;6164454;28;20249;-68
2023/12/26 17:59:22;;;;;;;4.07;1.33;;;;;;;6.03;100.00;101324.03;6149514;28;20246;-67
2023/12/26 18:02:43;;;;;;;1.57;0.90;;;;;;;5.87;100.00;101328.66;6164394;28;20230;-69
2023/12/26 18:06:09;;;;;;;4.03;2.07;;;;;;;5.73;100.00;101333.97;6161346;28;20333;-68
2023/12/26 18:09:30;;;;;;;1.23;1.07;;;;;;;5.67;100.00;101334.34;6156856;28;21239;-68
2023/12/26 18:12:52;;;;;;;1.13;1.03;;;;;;;5.78;100.00;101345.22;6165649;28;20239;-68
2023/12/26 18:16:13;;;;;;;1.00;0.90;;;;;;;5.86;100.00;101350.97;6161083;28;20235;-69
2023/12/26 18:19:34;;;;;;;3.93;1.63;;;;;;;5.75;100.00;101361.47;6163583;28;20234;-68
2023/12/26 18:22:56;;;;;;;1.60;1.50;;;;;;;5.81;100.00;101354.88;6161703;28;20231;-69
2023/12/26 18:26:18;;;;;;;2.07;1.50;;;;;;;5.89;100.00;101358.84;6145912;28;20230;-68
2023/12/26 18:29:39;;;;;;;2.67;1.67;;;;;;;5.90;100.00;101363.25;6150871;28;20798;-68
2023/12/26 18:33:00;;;;;;;5.20;2.30;;;;;;;5.84;100.00;101362.75;6144354;28;20625;-68
2023/12/26 18:36:21;;;;;;;2.63;2.07;;;;;;;5.78;100.00;101369.28;6151476;28;20246;-68
2023/12/26 18:39:43;;;;;;;2.93;2.47;;;;;;;5.71;100.00;101381.34;6151278;28;20226;-67